Time;durP1;ratioP1;P1;durP2;ratioP2;P2;SDS_P1;SDS_P2;PMS_P1;PMS_P2;Temp;Humidity;BMP_temperature;BMP_pressure;BME280_temperature;BME280_humidity;BME280_pressure;Samples;Min_cycle;Max_cycle;Signal;HPM_P1;HPM_P2
2020/12/22 00:01:55;;;;;;;3.38;1.52;;;10.60;99.50;;;;;;4996242;28;20089;-89
2020/12/22 00:04:24;;;;;;;2.60;1.17;;;10.60;99.40;;;;;;4994568;28;20054;-88
2020/12/22 00:06:51;;;;;;;2.78;1.00;;;10.70;99.50;;;;;;4994229;28;20077;-89
2020/12/22 00:09:19;;;;;;;3.95;1.20;;;10.60;99.50;;;;;;4993390;28;20088;-88
2020/12/22 00:11:45;;;;;;;3.00;0.90;;;10.60;99.50;;;;;;4993787;28;20133;-88
2020/12/22 00:14:13;;;;;;;1.45;0.70;;;10.70;99.50;;;;;;4993795;28;20142;-87
2020/12/22 00:16:39;;;;;;;1.98;0.80;;;10.70;99.50;;;;;;4993122;28;20054;-88
2020/12/22 00:19:06;;;;;;;1.95;0.82;;;10.70;99.50;;;;;;4994494;28;20546;-89
2020/12/22 00:21:33;;;;;;;1.88;0.70;;;10.80;99.70;;;;;;4993908;28;20082;-90
2020/12/22 00:24:00;;;;;;;1.60;0.60;;;10.70;99.50;;;;;;4993680;28;20066;-88
2020/12/22 00:26:26;;;;;;;1.65;0.70;;;10.80;99.50;;;;;;4994092;28;20054;-89
2020/12/22 00:28:53;;;;;;;1.13;0.60;;;10.90;99.50;;;;;;4993352;28;20556;-88
2020/12/22 00:31:21;;;;;;;2.70;0.60;;;10.80;99.50;;;;;;4993376;28;20058;-89
2020/12/22 00:33:48;;;;;;;1.08;0.50;;;10.90;99.50;;;;;;4977903;28;20148;-89
2020/12/22 00:36:15;;;;;;;0.80;0.40;;;10.90;99.40;;;;;;4993841;28;20462;-90
2020/12/22 00:38:44;;;;;;;1.52;0.60;;;10.90;99.50;;;;;;4994061;28;20454;-90
2020/12/22 00:41:13;;;;;;;1.55;0.60;;;11.00;99.60;;;;;;4993652;28;20085;-89
2020/12/22 00:43:41;;;;;;;1.23;0.50;;;11.00;99.40;;;;;;4993159;28;20050;-89
2020/12/22 00:46:09;;;;;;;1.05;0.47;;;11.10;99.50;;;;;;4993791;28;20145;-88
2020/12/22 00:48:36;;;;;;;2.05;0.90;;;11.00;99.60;;;;;;4993414;28;20185;-88
2020/12/22 00:51:03;;;;;;;1.30;0.70;;;11.00;99.60;;;;;;4959376;28;866229;-88
2020/12/22 00:53:29;;;;;;;2.60;0.80;;;11.10;99.50;;;;;;4949053;28;20050;-89
2020/12/22 00:55:56;;;;;;;0.70;0.30;;;11.10;99.50;;;;;;4994528;28;20085;-88
2020/12/22 00:58:23;;;;;;;1.80;0.45;;;11.20;99.40;;;;;;4999112;28;20050;-88
2020/12/22 01:00:49;;;;;;;0.60;0.40;;;11.30;99.40;;;;;;4994575;28;20141;-87
2020/12/22 01:03:16;;;;;;;1.95;0.50;;;11.20;99.20;;;;;;4994428;28;20475;-89
2020/12/22 01:05:43;;;;;;;0.73;0.30;;;11.30;99.30;;;;;;4993995;28;20051;-88
2020/12/22 01:08:10;;;;;;;1.38;0.50;;;11.30;99.30;;;;;;4994441;28;20149;-88
2020/12/22 01:10:37;;;;;;;2.08;0.43;;;11.40;99.20;;;;;;4997326;28;20058;-89
2020/12/22 01:13:03;;;;;;;1.65;0.38;;;11.30;99.30;;;;;;4998112;28;20522;-88
2020/12/22 01:15:30;;;;;;;0.32;0.30;;;11.30;99.40;;;;;;4998626;28;20078;-88
2020/12/22 01:17:56;;;;;;;1.30;0.30;;;11.40;99.30;;;;;;4998471;28;20558;-88
2020/12/22 01:20:23;;;;;;;1.17;0.43;;;11.30;99.30;;;;;;4998032;28;20145;-88
2020/12/22 01:22:50;;;;;;;1.05;0.50;;;11.40;99.30;;;;;;4997540;28;20141;-88
2020/12/22 01:25:17;;;;;;;0.65;0.30;;;11.40;99.10;;;;;;4997291;28;20483;-87
2020/12/22 01:27:44;;;;;;;2.42;0.50;;;11.50;99.10;;;;;;4998132;28;20069;-89
2020/12/22 01:30:10;;;;;;;0.77;0.30;;;11.50;99.00;;;;;;4997822;28;20054;-88
2020/12/22 01:32:37;;;;;;;1.50;0.47;;;11.60;99.00;;;;;;4998146;28;20500;-89
2020/12/22 01:35:04;;;;;;;0.68;0.28;;;11.50;99.00;;;;;;4998691;28;20136;-88
2020/12/22 01:37:30;;;;;;;1.30;0.50;;;11.60;99.00;;;;;;4996393;28;20144;-88
2020/12/22 01:39:58;;;;;;;1.08;0.40;;;11.60;98.80;;;;;;4998039;28;20046;-88
2020/12/22 01:42:25;;;;;;;0.50;0.40;;;11.70;98.90;;;;;;4987748;28;20502;-88
2020/12/22 01:44:51;;;;;;;0.68;0.30;;;11.70;98.80;;;;;;4996940;28;20137;-89
2020/12/22 01:47:19;;;;;;;0.98;0.35;;;11.60;98.80;;;;;;4998921;28;20085;-88
2020/12/22 01:49:46;;;;;;;1.90;0.30;;;11.70;98.80;;;;;;5007773;28;20452;-88
2020/12/22 01:52:13;;;;;;;0.65;0.25;;;11.70;98.70;;;;;;5014795;28;20101;-87
2020/12/22 01:54:40;;;;;;;0.98;0.38;;;11.70;98.80;;;;;;4997029;28;20427;-87
2020/12/22 01:57:13;;;;;;;0.88;0.32;;;11.70;98.80;;;;;;4996339;28;20149;-87
2020/12/22 01:59:40;;;;;;;1.80;0.43;;;11.80;98.80;;;;;;4979559;28;20053;-88
2020/12/22 02:02:07;;;;;;;0.68;0.43;;;11.70;98.70;;;;;;4996943;28;20138;-89
2020/12/22 02:04:35;;;;;;;0.63;0.30;;;11.80;98.60;;;;;;4997906;28;20133;-89
2020/12/22 02:07:04;;;;;;;1.00;0.40;;;11.80;98.60;;;;;;4997355;28;20137;-88
2020/12/22 02:09:31;;;;;;;1.05;0.40;;;11.80;98.60;;;;;;4998690;28;20054;-88
2020/12/22 02:11:57;;;;;;;0.77;0.45;;;11.90;98.60;;;;;;4997426;28;20185;-87
2020/12/22 02:14:25;;;;;;;0.70;0.30;;;11.90;98.90;;;;;;4980227;28;20152;-87
2020/12/22 02:16:51;;;;;;;2.13;0.30;;;11.90;98.70;;;;;;4996665;28;20042;-88
2020/12/22 02:19:19;;;;;;;0.47;0.30;;;11.90;98.60;;;;;;4996351;28;20185;-87
2020/12/22 02:21:46;;;;;;;0.63;0.30;;;11.90;98.60;;;;;;4997026;28;20125;-88
2020/12/22 02:24:13;;;;;;;0.68;0.30;;;11.90;98.60;;;;;;4997113;28;20073;-86
2020/12/22 02:26:39;;;;;;;1.40;0.40;;;11.90;98.70;;;;;;4996302;28;20472;-86
2020/12/22 02:29:06;;;;;;;0.90;0.40;;;11.90;98.60;;;;;;4996757;28;20133;-87
2020/12/22 02:31:32;;;;;;;1.15;0.40;;;11.90;98.70;;;;;;4997232;28;20081;-87
2020/12/22 02:33:59;;;;;;;1.90;0.40;;;11.90;98.70;;;;;;4996372;28;20104;-87
2020/12/22 02:36:26;;;;;;;0.28;0.20;;;11.90;98.70;;;;;;4996618;28;20584;-87
2020/12/22 02:38:55;;;;;;;1.63;0.50;;;12.00;98.60;;;;;;4996448;28;20050;-87
2020/12/22 02:41:22;;;;;;;0.90;0.40;;;12.00;98.70;;;;;;4997451;28;20575;-87
2020/12/22 02:43:48;;;;;;;0.68;0.30;;;12.00;98.70;;;;;;4996005;28;20101;-87
2020/12/22 02:46:15;;;;;;;1.27;0.43;;;12.00;98.60;;;;;;4996205;28;20081;-87
2020/12/22 02:48:41;;;;;;;2.08;0.47;;;12.00;98.50;;;;;;4997305;28;20188;-86
2020/12/22 02:51:08;;;;;;;1.10;0.38;;;12.00;98.60;;;;;;4994184;28;20138;-87
2020/12/22 02:53:35;;;;;;;0.45;0.20;;;12.00;98.60;;;;;;4995615;28;20137;-85
2020/12/22 02:56:03;;;;;;;0.85;0.30;;;12.10;98.40;;;;;;4996831;28;20130;-86
2020/12/22 02:58:29;;;;;;;0.75;0.30;;;12.10;98.30;;;;;;4995611;28;20480;-88
2020/12/22 03:00:56;;;;;;;0.90;0.40;;;12.10;98.50;;;;;;4995518;28;20108;-88
2020/12/22 03:03:22;;;;;;;1.38;0.30;;;12.10;98.30;;;;;;4995837;28;20141;-88
2020/12/22 03:05:49;;;;;;;0.20;0.20;;;12.10;98.40;;;;;;4994598;28;20066;-88
2020/12/22 03:08:16;;;;;;;0.73;0.30;;;12.10;98.50;;;;;;4996416;28;20559;-89
2020/12/22 03:10:43;;;;;;;1.02;0.35;;;12.10;98.30;;;;;;4996048;28;20054;-88
2020/12/22 03:13:10;;;;;;;0.80;0.47;;;12.00;98.30;;;;;;4995494;28;20134;-89
2020/12/22 03:15:37;;;;;;;1.50;0.32;;;12.00;98.30;;;;;;4996995;28;20137;-89
2020/12/22 03:18:04;;;;;;;1.40;0.40;;;12.10;98.20;;;;;;4996198;28;20489;-88
2020/12/22 03:20:31;;;;;;;0.65;0.30;;;12.10;98.10;;;;;;4996523;28;20181;-89
2020/12/22 03:22:58;;;;;;;1.05;0.40;;;12.10;98.20;;;;;;4996911;28;20509;-89
2020/12/22 03:25:24;;;;;;;0.43;0.22;;;12.10;98.20;;;;;;4994526;28;20060;-89
2020/12/22 03:27:51;;;;;;;0.47;0.20;;;12.10;98.10;;;;;;4978223;28;20137;-89
2020/12/22 03:30:19;;;;;;;0.70;0.20;;;12.20;98.00;;;;;;4995353;28;20587;-89
2020/12/22 03:32:45;;;;;;;1.33;0.30;;;12.10;97.90;;;;;;4977784;28;20133;-89
2020/12/22 03:35:13;;;;;;;1.10;0.40;;;12.00;98.00;;;;;;4995003;28;20461;-87
2020/12/22 03:37:40;;;;;;;0.47;0.25;;;12.10;97.90;;;;;;4995059;28;20058;-88
2020/12/22 03:40:09;;;;;;;0.38;0.20;;;12.10;97.80;;;;;;4995036;28;20074;-88
2020/12/22 03:42:36;;;;;;;1.52;0.30;;;12.10;97.90;;;;;;4995234;28;20050;-89
2020/12/22 03:45:04;;;;;;;0.63;0.25;;;12.10;97.70;;;;;;4995854;28;20086;-87
2020/12/22 03:47:32;;;;;;;0.50;0.30;;;12.10;97.70;;;;;;4994938;28;20523;-88
2020/12/22 03:49:59;;;;;;;0.73;0.30;;;12.10;97.70;;;;;;4994780;28;20479;-87
2020/12/22 03:52:25;;;;;;;0.80;0.40;;;12.00;97.70;;;;;;4994477;28;20076;-86
2020/12/22 03:54:52;;;;;;;0.38;0.28;;;12.10;97.60;;;;;;4979564;28;20502;-88
2020/12/22 03:57:19;;;;;;;0.80;0.30;;;12.10;97.60;;;;;;4995455;28;20081;-88
2020/12/22 03:59:45;;;;;;;0.68;0.30;;;12.10;97.50;;;;;;4978447;28;20133;-88
2020/12/22 04:02:12;;;;;;;0.52;0.20;;;12.20;97.50;;;;;;4998976;28;20085;-87
2020/12/22 04:04:40;;;;;;;0.40;0.20;;;12.20;97.40;;;;;;4995079;28;20093;-88
2020/12/22 04:07:07;;;;;;;0.38;0.13;;;12.30;97.40;;;;;;4996805;28;20540;-89
2020/12/22 04:09:34;;;;;;;2.55;0.30;;;12.20;97.30;;;;;;4994234;28;20129;-89
2020/12/22 04:12:00;;;;;;;0.30;0.10;;;12.30;97.20;;;;;;4996184;28;20598;-88
2020/12/22 04:14:27;;;;;;;0.85;0.20;;;12.30;97.20;;;;;;4994521;28;20053;-88
2020/12/22 04:16:53;;;;;;;0.35;0.05;;;12.20;97.30;;;;;;4994517;28;20054;-88
2020/12/22 04:19:20;;;;;;;1.17;0.17;;;12.30;97.60;;;;;;4994314;28;20078;-87
2020/12/22 04:21:49;;;;;;;0.10;0.00;;;12.30;97.60;;;;;;4994566;28;20132;-87
2020/12/22 04:24:16;;;;;;;0.40;0.13;;;12.30;97.50;;;;;;4994889;28;20564;-90
2020/12/22 04:26:43;;;;;;;0.55;0.20;;;12.30;97.20;;;;;;4995237;28;20140;-92
2020/12/22 04:29:09;;;;;;;0.90;0.22;;;12.30;97.30;;;;;;4995654;28;20050;-89
2020/12/22 04:31:36;;;;;;;0.20;0.10;;;12.30;97.20;;;;;;4995109;28;20563;-89
2020/12/22 04:34:03;;;;;;;0.73;0.20;;;12.30;97.30;;;;;;4995364;28;20046;-90
2020/12/22 04:36:30;;;;;;;0.73;0.10;;;12.30;97.30;;;;;;4977476;28;20056;-91
2020/12/22 04:38:57;;;;;;;0.20;0.10;;;12.30;97.30;;;;;;4978197;28;20142;-90
2020/12/22 04:41:25;;;;;;;1.58;0.20;;;12.30;97.40;;;;;;4995126;28;20141;-90
2020/12/22 04:43:52;;;;;;;0.43;0.10;;;12.30;97.40;;;;;;4995375;28;20129;-90
2020/12/22 04:46:22;;;;;;;1.10;0.28;;;12.30;97.50;;;;;;4994719;28;20054;-90
2020/12/22 04:48:54;;;;;;;0.22;0.10;;;12.30;97.60;;;;;;4994490;28;20266;-88
2020/12/22 04:51:22;;;;;;;1.08;0.20;;;12.30;97.60;;;;;;4995120;28;20089;-89
2020/12/22 04:53:50;;;;;;;0.20;0.10;;;12.30;97.70;;;;;;4995385;28;20516;-88
2020/12/22 04:56:20;;;;;;;1.65;0.35;;;12.30;97.60;;;;;;4994646;28;20050;-91
2020/12/22 04:58:47;;;;;;;0.77;0.10;;;12.40;97.50;;;;;;4994447;28;20141;-89
2020/12/22 05:01:16;;;;;;;0.10;0.00;;;12.40;97.50;;;;;;4995457;28;20042;-89
2020/12/22 05:03:43;;;;;;;0.57;0.15;;;12.40;97.60;;;;;;4996441;28;20448;-89
2020/12/22 05:06:10;;;;;;;1.73;0.20;;;12.40;97.60;;;;;;5007662;28;20137;-90
2020/12/22 05:08:36;;;;;;;0.32;0.13;;;12.40;97.50;;;;;;4996399;28;20389;-90
2020/12/22 05:11:03;;;;;;;1.33;0.15;;;12.40;97.50;;;;;;4995372;28;20156;-88
2020/12/22 05:13:31;;;;;;;0.35;0.10;;;12.50;97.30;;;;;;4994628;28;20545;-90
2020/12/22 05:15:57;;;;;;;0.25;0.20;;;12.50;97.30;;;;;;4999991;28;20062;-86
2020/12/22 05:18:26;;;;;;;0.20;0.10;;;12.50;97.20;;;;;;5004758;28;20163;-88
2020/12/22 05:20:55;;;;;;;0.57;0.20;;;12.40;97.40;;;;;;5006895;28;20050;-88
2020/12/22 05:23:23;;;;;;;0.50;0.10;;;12.50;97.30;;;;;;5006729;28;20129;-89
2020/12/22 05:25:51;;;;;;;0.13;0.10;;;12.40;97.20;;;;;;4994592;28;20133;-90
2020/12/22 05:28:20;;;;;;;0.28;0.10;;;12.50;97.30;;;;;;4994529;28;20078;-90
2020/12/22 05:30:50;;;;;;;0.77;0.22;;;12.50;97.20;;;;;;4994722;28;20137;-90
2020/12/22 05:33:17;;;;;;;0.40;0.20;;;12.50;97.10;;;;;;4993875;28;20104;-89
2020/12/22 05:35:46;;;;;;;1.05;0.20;;;12.50;97.10;;;;;;4993777;28;20141;-88
2020/12/22 05:38:16;;;;;;;1.13;0.30;;;12.50;97.10;;;;;;4993653;28;20060;-88
2020/12/22 05:40:43;;;;;;;0.52;0.20;;;12.60;96.90;;;;;;4994031;28;20082;-88
2020/12/22 05:43:11;;;;;;;0.55;0.10;;;12.60;97.00;;;;;;4993871;28;20133;-91
2020/12/22 05:45:40;;;;;;;0.88;0.20;;;12.70;96.90;;;;;;4976303;28;20133;-87
2020/12/22 05:48:15;;;;;;;0.40;0.20;;;12.60;96.90;;;;;;4992772;28;20430;-84
2020/12/22 05:50:48;;;;;;;0.17;0.10;;;12.60;97.10;;;;;;4993253;28;20129;-84
2020/12/22 05:53:15;;;;;;;1.17;0.30;;;12.60;96.90;;;;;;4975363;28;20082;-85
2020/12/22 05:55:42;;;;;;;1.00;0.20;;;12.70;96.80;;;;;;4995240;28;20468;-87
2020/12/22 05:58:11;;;;;;;0.80;0.10;;;12.60;96.90;;;;;;4979450;28;20326;-87
2020/12/22 06:00:39;;;;;;;0.73;0.22;;;12.60;96.90;;;;;;4996805;28;20129;-88
2020/12/22 06:03:09;;;;;;;0.57;0.20;;;12.70;96.80;;;;;;4996681;28;20128;-86
2020/12/22 06:05:39;;;;;;;0.98;0.30;;;12.70;96.80;;;;;;4995687;28;20500;-87
2020/12/22 06:08:07;;;;;;;0.70;0.25;;;12.60;96.80;;;;;;4976792;28;20092;-89
2020/12/22 06:10:36;;;;;;;1.10;0.20;;;12.70;96.80;;;;;;4988839;28;20058;-89
2020/12/22 06:13:05;;;;;;;1.15;0.30;;;12.70;96.70;;;;;;4992402;28;20137;-87
2020/12/22 06:15:33;;;;;;;1.20;0.30;;;12.80;96.70;;;;;;4990551;28;20054;-89
2020/12/22 06:18:00;;;;;;;0.70;0.20;;;12.80;96.60;;;;;;4999656;28;20137;-86
2020/12/22 06:20:29;;;;;;;0.93;0.40;;;12.70;96.70;;;;;;4996231;28;20050;-87
2020/12/22 06:23:04;;;;;;;1.90;0.40;;;12.80;96.70;;;;;;4996203;28;20054;-89
2020/12/22 06:25:31;;;;;;;;;;;12.80;96.50;;;;;;4997004;28;20101;-87
2020/12/22 06:27:58;;;;;;;1.08;0.40;;;12.80;96.60;;;;;;4997250;28;20063;-88
2020/12/22 06:30:34;;;;;;;1.58;0.35;;;12.80;96.60;;;;;;4979292;28;20050;-87
2020/12/22 06:33:20;;;;;;;1.23;0.20;;;12.90;96.50;;;;;;4994222;28;20129;-88
2020/12/22 06:36:05;;;;;;;1.15;0.40;;;12.80;96.60;;;;;;4992740;28;20082;-87
2020/12/22 06:38:54;;;;;;;1.10;0.40;;;12.90;96.50;;;;;;4996494;28;20097;-85
2020/12/22 06:41:54;;;;;;;0.55;0.30;;;13.00;96.40;;;;;;4996655;28;20499;-88
2020/12/22 06:44:26;;;;;;;1.05;0.57;;;12.90;96.40;;;;;;4991040;28;20082;-88
2020/12/22 06:46:53;;;;;;;2.03;0.40;;;12.90;96.40;;;;;;4985946;28;20081;-87
2020/12/22 06:49:48;;;;;;;1.80;0.50;;;13.00;96.40;;;;;;4979633;28;20046;-85
2020/12/22 06:52:31;;;;;;;3.47;0.60;;;12.90;96.40;;;;;;4996730;28;20054;-81
2020/12/22 06:54:58;;;;;;;0.98;0.38;;;13.00;96.70;;;;;;4993676;28;20137;-87
2020/12/22 06:57:45;;;;;;;2.35;0.32;;;13.10;96.20;;;;;;4977908;28;20050;-84
2020/12/22 07:00:35;;;;;;;1.50;0.32;;;13.10;96.10;;;;;;4994185;28;20125;-87
2020/12/22 07:03:11;;;;;;;0.82;0.25;;;13.10;96.10;;;;;;4975607;28;20101;-86
2020/12/22 07:05:39;;;;;;;3.17;0.45;;;13.10;96.10;;;;;;4976214;28;20130;-86
2020/12/22 07:08:07;;;;;;;0.98;0.40;;;13.10;96.20;;;;;;4974965;28;20090;-85
2020/12/22 07:10:38;;;;;;;2.72;0.60;;;13.20;96.00;;;;;;4975785;28;20051;-85
2020/12/22 07:13:08;;;;;;;1.30;0.40;;;13.20;95.90;;;;;;4975696;28;20058;-86
2020/12/22 07:15:37;;;;;;;1.77;0.50;;;13.20;96.10;;;;;;4976098;28;20078;-84
2020/12/22 07:18:12;;;;;;;1.70;0.47;;;13.20;95.90;;;;;;4975676;28;20065;-85
2020/12/22 07:20:44;;;;;;;1.38;0.57;;;13.20;95.90;;;;;;4975598;28;20150;-85
2020/12/22 07:23:12;;;;;;;1.05;0.55;;;13.20;95.80;;;;;;4976853;28;20129;-86
2020/12/22 07:25:41;;;;;;;0.98;0.35;;;13.30;95.70;;;;;;4976075;28;20082;-86
2020/12/22 07:28:10;;;;;;;0.55;0.25;;;13.30;95.70;;;;;;4976171;28;20051;-85
2020/12/22 07:30:37;;;;;;;0.77;0.30;;;13.30;95.60;;;;;;4976420;28;20137;-85
2020/12/22 07:33:05;;;;;;;0.73;0.30;;;13.30;95.60;;;;;;4975598;28;20190;-85
2020/12/22 07:35:33;;;;;;;0.32;0.20;;;13.40;95.40;;;;;;4975780;28;20142;-85
2020/12/22 07:38:05;;;;;;;1.65;0.40;;;13.40;95.40;;;;;;4975801;28;20145;-85
2020/12/22 07:40:32;;;;;;;1.40;0.30;;;13.40;95.50;;;;;;4976165;28;20507;-84
2020/12/22 07:43:07;;;;;;;1.10;0.28;;;13.40;95.40;;;;;;4975954;28;20149;-85
2020/12/22 07:45:34;;;;;;;0.52;0.30;;;13.40;95.40;;;;;;4975818;28;20142;-85
2020/12/22 07:48:06;;;;;;;1.38;0.38;;;13.40;95.50;;;;;;4974966;28;20055;-85
2020/12/22 07:50:32;;;;;;;0.85;0.30;;;13.50;95.40;;;;;;4975403;28;20101;-86
2020/12/22 07:53:00;;;;;;;1.80;0.45;;;13.50;95.40;;;;;;4975747;28;20086;-86
2020/12/22 07:55:37;;;;;;;0.77;0.30;;;13.50;95.40;;;;;;4975754;28;20066;-85
2020/12/22 07:58:05;;;;;;;0.40;0.17;;;13.50;95.50;;;;;;4977105;28;20147;-86
2020/12/22 08:00:32;;;;;;;0.52;0.20;;;13.50;95.60;;;;;;4976308;28;20113;-86
2020/12/22 08:03:13;;;;;;;0.85;0.30;;;13.50;95.60;;;;;;4974946;28;20142;-86
2020/12/22 08:05:39;;;;;;;1.35;0.40;;;13.50;95.60;;;;;;4958847;28;20386;-86
2020/12/22 08:08:07;;;;;;;1.80;0.30;;;13.50;95.60;;;;;;4959757;28;20047;-84
2020/12/22 08:10:38;;;;;;;0.68;0.40;;;13.50;95.60;;;;;;4978510;28;20058;-86
2020/12/22 08:13:06;;;;;;;1.08;0.20;;;13.60;95.60;;;;;;4977171;28;20134;-85
2020/12/22 08:15:34;;;;;;;1.08;0.32;;;13.60;95.60;;;;;;4976937;28;20051;-86
2020/12/22 08:18:01;;;;;;;1.02;0.30;;;13.50;95.60;;;;;;4980265;28;20102;-86
2020/12/22 08:20:28;;;;;;;1.65;0.40;;;13.60;95.60;;;;;;4979786;28;20516;-87
2020/12/22 08:22:54;;;;;;;0.65;0.28;;;13.50;95.80;;;;;;4977228;28;20058;-86
2020/12/22 08:25:21;;;;;;;1.45;0.40;;;13.60;95.60;;;;;;4976852;28;20074;-86
2020/12/22 08:27:53;;;;;;;0.75;0.30;;;13.60;95.60;;;;;;4976689;28;20114;-86
2020/12/22 08:30:21;;;;;;;2.35;0.43;;;13.60;95.60;;;;;;4977059;28;20484;-87
2020/12/22 08:32:48;;;;;;;0.35;0.20;;;13.60;95.70;;;;;;4976897;28;20133;-87
2020/12/22 08:35:58;;;;;;;2.05;0.40;;;13.50;95.70;;;;;;4981822;28;20106;-87
2020/12/22 08:38:27;;;;;;;0.82;0.38;;;13.60;95.40;;;;;;4966164;28;20051;-85
2020/12/22 08:40:56;;;;;;;0.90;0.30;;;13.60;95.40;;;;;;4950883;28;20107;-85
2020/12/22 08:43:25;;;;;;;0.90;0.40;;;13.70;95.50;;;;;;4983563;28;20081;-85
2020/12/22 08:45:53;;;;;;;1.33;0.30;;;13.70;95.10;;;;;;4984897;28;20106;-86
2020/12/22 08:48:20;;;;;;;0.40;0.20;;;13.60;95.30;;;;;;4967426;28;20141;-85
2020/12/22 08:50:51;;;;;;;0.88;0.40;;;13.70;95.20;;;;;;4983516;28;20114;-85
2020/12/22 08:53:18;;;;;;;0.80;0.30;;;13.70;95.20;;;;;;4984747;28;20082;-86
2020/12/22 08:55:45;;;;;;;0.95;0.40;;;13.60;95.30;;;;;;4984355;28;20070;-87
2020/12/22 08:58:11;;;;;;;0.85;0.40;;;13.70;95.10;;;;;;4996383;28;20078;-87
2020/12/22 09:00:39;;;;;;;0.80;0.32;;;13.70;95.10;;;;;;5003718;28;20086;-88
2020/12/22 09:03:07;;;;;;;1.65;0.45;;;13.70;95.30;;;;;;5003123;28;20109;-88
2020/12/22 09:05:35;;;;;;;1.50;0.40;;;13.70;95.00;;;;;;5000568;28;20137;-89
2020/12/22 09:08:03;;;;;;;1.35;0.50;;;13.70;95.10;;;;;;4980241;28;20054;-88
2020/12/22 09:10:30;;;;;;;1.30;0.43;;;13.70;95.00;;;;;;4979716;28;20058;-84
2020/12/22 09:12:57;;;;;;;1.30;0.45;;;13.80;95.00;;;;;;5007337;28;20050;-81
2020/12/22 09:15:23;;;;;;;1.05;0.40;;;13.90;94.80;;;;;;5013145;28;20078;-85
2020/12/22 09:17:51;;;;;;;1.35;0.50;;;13.90;94.70;;;;;;5007815;28;20054;-82
2020/12/22 09:20:24;;;;;;;1.10;0.50;;;13.90;94.70;;;;;;5015280;28;20089;-83
2020/12/22 09:22:50;;;;;;;1.40;0.50;;;13.80;95.10;;;;;;4997167;28;20046;-84
2020/12/22 09:25:17;;;;;;;1.70;0.50;;;13.80;94.80;;;;;;4993662;28;20082;-85
2020/12/22 09:27:44;;;;;;;1.02;0.40;;;13.80;94.90;;;;;;4992507;28;20093;-84
2020/12/22 09:30:12;;;;;;;0.95;0.50;;;13.90;95.30;;;;;;4994675;28;20050;-84
2020/12/22 09:32:40;;;;;;;1.50;0.40;;;13.80;95.20;;;;;;4996889;28;20057;-84
2020/12/22 09:35:08;;;;;;;1.65;0.60;;;13.80;95.80;;;;;;4997034;28;20093;-85
2020/12/22 09:37:35;;;;;;;1.13;0.40;;;13.80;96.00;;;;;;4996875;28;20130;-84
2020/12/22 09:40:03;;;;;;;0.98;0.30;;;13.70;96.50;;;;;;4997688;28;20148;-85
2020/12/22 09:42:29;;;;;;;1.25;0.40;;;13.70;96.60;;;;;;4997429;28;20047;-83
2020/12/22 09:44:56;;;;;;;1.05;0.40;;;13.70;96.90;;;;;;4996806;28;20494;-82
2020/12/22 09:47:23;;;;;;;1.92;0.38;;;13.60;97.40;;;;;;4997635;28;20139;-81
2020/12/22 09:49:49;;;;;;;1.85;0.50;;;13.40;98.20;;;;;;4997248;28;20134;-82
2020/12/22 09:52:17;;;;;;;1.25;0.47;;;13.40;98.30;;;;;;4997294;28;20137;-84
2020/12/22 09:54:43;;;;;;;1.52;0.70;;;13.40;98.40;;;;;;4996603;28;20137;-84
2020/12/22 09:57:10;;;;;;;1.75;0.50;;;13.30;98.80;;;;;;4994813;28;20388;-84
2020/12/22 09:59:36;;;;;;;0.70;0.30;;;13.30;98.90;;;;;;4994933;28;20086;-83
2020/12/22 10:02:03;;;;;;;1.42;0.50;;;13.30;98.80;;;;;;4994257;28;20081;-83
2020/12/22 10:04:32;;;;;;;2.45;0.55;;;13.20;99.10;;;;;;4995408;28;20081;-85
2020/12/22 10:07:01;;;;;;;2.28;0.50;;;13.20;99.10;;;;;;4995434;28;20046;-81
2020/12/22 10:09:29;;;;;;;1.42;0.50;;;13.20;98.90;;;;;;4996196;28;20097;-86
2020/12/22 10:11:56;;;;;;;0.77;0.30;;;13.30;98.80;;;;;;4994880;28;20471;-87
2020/12/22 10:14:22;;;;;;;2.17;0.60;;;13.40;98.60;;;;;;4995277;28;20489;-83
2020/12/22 10:16:49;;;;;;;0.95;0.40;;;13.40;98.30;;;;;;4995121;28;20054;-87
2020/12/22 10:19:15;;;;;;;2.65;0.52;;;13.50;98.50;;;;;;4996270;28;20141;-86
2020/12/22 10:21:42;;;;;;;1.63;0.60;;;13.50;98.20;;;;;;4995560;28;20570;-85
2020/12/22 10:24:09;;;;;;;3.20;0.55;;;13.40;98.10;;;;;;4994174;28;20057;-85
2020/12/22 10:26:36;;;;;;;1.98;0.50;;;13.50;97.80;;;;;;4993868;28;20145;-83
2020/12/22 10:29:03;;;;;;;1.67;0.60;;;13.50;97.80;;;;;;4995832;28;20526;-84
2020/12/22 10:31:30;;;;;;;1.52;0.55;;;13.60;97.60;;;;;;4994221;28;20427;-83
2020/12/22 10:33:57;;;;;;;1.23;0.43;;;13.60;97.20;;;;;;4994489;28;20070;-79
2020/12/22 10:36:27;;;;;;;0.82;0.40;;;13.70;97.40;;;;;;4995333;28;20117;-82
2020/12/22 10:38:56;;;;;;;1.40;0.50;;;13.70;97.10;;;;;;4995215;28;20460;-85
2020/12/22 10:41:24;;;;;;;3.22;0.70;;;13.70;97.20;;;;;;4995302;28;20129;-89
2020/12/22 10:43:53;;;;;;;1.50;0.50;;;13.70;96.90;;;;;;4995466;28;20090;-89
2020/12/22 10:46:20;;;;;;;1.83;0.60;;;13.70;96.90;;;;;;4996480;28;20559;-83
2020/12/22 10:48:49;;;;;;;1.63;0.52;;;13.80;96.70;;;;;;4995890;28;20561;-85
2020/12/22 10:51:16;;;;;;;1.15;0.50;;;13.80;96.80;;;;;;4997691;28;20102;-87
2020/12/22 10:53:43;;;;;;;1.73;0.50;;;13.80;96.80;;;;;;4995670;28;20134;-82
2020/12/22 10:56:11;;;;;;;1.20;0.50;;;13.90;96.40;;;;;;4995523;28;20141;-83
2020/12/22 10:58:39;;;;;;;1.05;0.43;;;13.80;96.60;;;;;;4996829;28;20141;-84
2020/12/22 11:01:07;;;;;;;1.55;0.40;;;13.80;96.70;;;;;;4996691;28;20046;-86
2020/12/22 11:03:34;;;;;;;0.90;0.40;;;13.80;96.50;;;;;;4998376;28;20092;-93
2020/12/22 11:06:21;;;;;;;1.75;0.40;;;13.80;96.40;;;;;;5004431;28;20072;-91
2020/12/22 11:08:48;;;;;;;2.47;0.45;;;13.90;96.30;;;;;;4994211;28;20069;-89
2020/12/22 11:11:15;;;;;;;1.50;0.50;;;13.90;96.30;;;;;;4980486;28;20514;-92
2020/12/22 11:13:42;;;;;;;1.20;0.40;;;13.90;96.00;;;;;;4979621;28;20202;-89
2020/12/22 11:16:10;;;;;;;1.20;0.43;;;13.90;96.20;;;;;;4993258;28;20082;-85
2020/12/22 11:18:37;;;;;;;0.63;0.28;;;13.90;96.20;;;;;;4993844;28;20088;-85
2020/12/22 11:21:10;;;;;;;0.90;0.30;;;14.00;95.80;;;;;;4993852;28;20058;-85
2020/12/22 11:23:36;;;;;;;0.95;0.30;;;14.00;95.90;;;;;;4998588;28;20046;-87
2020/12/22 11:26:03;;;;;;;0.70;0.28;;;14.00;96.00;;;;;;5004523;28;20088;-86
2020/12/22 11:28:30;;;;;;;2.30;0.70;;;14.00;96.10;;;;;;5002138;28;20138;-86
2020/12/22 11:30:56;;;;;;;2.28;0.45;;;14.00;96.00;;;;;;4995089;28;20060;-86
2020/12/22 11:33:24;;;;;;;2.05;0.40;;;14.00;95.90;;;;;;4994506;28;20173;-87
2020/12/22 11:35:50;;;;;;;2.30;0.60;;;14.00;96.00;;;;;;4994440;28;20228;-85
2020/12/22 11:38:17;;;;;;;1.17;0.35;;;14.10;95.80;;;;;;4993101;28;20141;-87
2020/12/22 11:40:44;;;;;;;1.48;0.35;;;14.10;95.60;;;;;;4994992;28;20575;-86
2020/12/22 11:43:12;;;;;;;1.83;0.60;;;14.10;95.80;;;;;;4994592;28;20132;-84
2020/12/22 11:45:39;;;;;;;0.60;0.30;;;14.00;96.00;;;;;;4995617;28;20046;-86
2020/12/22 11:48:05;;;;;;;1.92;0.50;;;14.00;95.90;;;;;;4994464;28;20035;-86
2020/12/22 11:50:33;;;;;;;1.42;0.50;;;14.00;96.00;;;;;;4992127;28;20125;-86
2020/12/22 11:52:59;;;;;;;0.85;0.30;;;14.00;96.10;;;;;;4992808;28;20054;-86
2020/12/22 11:55:26;;;;;;;0.88;0.30;;;14.10;96.10;;;;;;4994604;28;20165;-87
2020/12/22 11:57:53;;;;;;;1.38;0.38;;;14.10;96.00;;;;;;4993976;28;20567;-85
2020/12/22 12:00:19;;;;;;;0.93;0.30;;;14.20;95.80;;;;;;4993591;28;20081;-86
2020/12/22 12:02:46;;;;;;;0.77;0.30;;;14.20;95.80;;;;;;4993601;28;20454;-86
2020/12/22 12:05:12;;;;;;;0.63;0.35;;;14.20;96.00;;;;;;4991871;28;20125;-86
2020/12/22 12:07:40;;;;;;;0.82;0.30;;;14.20;96.10;;;;;;4993447;28;20147;-86
2020/12/22 12:10:06;;;;;;;1.55;0.55;;;14.20;96.50;;;;;;4993484;28;20206;-85
2020/12/22 12:12:33;;;;;;;0.80;0.30;;;14.20;96.20;;;;;;4993071;28;20078;-84
2020/12/22 12:15:01;;;;;;;0.70;0.28;;;14.10;96.40;;;;;;4993114;28;20105;-84
2020/12/22 12:17:27;;;;;;;0.68;0.20;;;14.20;96.50;;;;;;4991707;28;20514;-85
2020/12/22 12:19:54;;;;;;;1.17;0.32;;;14.10;96.60;;;;;;4992753;28;20165;-84
2020/12/22 12:22:21;;;;;;;2.15;0.50;;;14.20;96.60;;;;;;4993028;28;20047;-85
2020/12/22 12:24:48;;;;;;;2.40;0.40;;;14.20;96.70;;;;;;4993322;28;20465;-84
2020/12/22 12:27:15;;;;;;;0.85;0.32;;;14.20;96.90;;;;;;4992954;28;20054;-84
2020/12/22 12:29:41;;;;;;;1.05;0.30;;;14.20;96.90;;;;;;4992596;28;20137;-84
2020/12/22 12:32:08;;;;;;;1.08;0.30;;;14.10;97.00;;;;;;4991639;28;20628;-85
2020/12/22 12:34:35;;;;;;;2.33;0.50;;;14.10;97.10;;;;;;4992866;28;20484;-84
2020/12/22 12:37:01;;;;;;;1.40;0.40;;;14.10;97.00;;;;;;4992621;28;20136;-91
2020/12/22 12:39:28;;;;;;;2.08;0.60;;;14.10;97.00;;;;;;4993551;28;20542;-88
2020/12/22 12:41:55;;;;;;;1.45;0.57;;;14.10;97.20;;;;;;4993845;28;20057;-88
2020/12/22 12:44:22;;;;;;;2.17;0.60;;;14.00;97.50;;;;;;4992627;28;20081;-88
2020/12/22 12:46:52;;;;;;;2.50;0.57;;;14.10;97.60;;;;;;4993226;28;20556;-88
2020/12/22 12:49:18;;;;;;;1.95;0.60;;;14.00;97.40;;;;;;4993662;28;20097;-90
2020/12/22 12:51:45;;;;;;;1.77;0.60;;;14.00;97.50;;;;;;4994176;28;20113;-88
2020/12/22 12:54:12;;;;;;;1.73;0.60;;;14.00;97.30;;;;;;4991651;28;20399;-85